createdAt,value
2017-11-09T00:02:15.797Z,158.83
2017-11-09T00:04:48.166Z,147.33
2017-11-09T00:07:14.505Z,127.77
2017-11-09T00:09:40.901Z,122.67
2017-11-09T00:12:08.122Z,130.80
2017-11-09T00:14:34.470Z,151.83
2017-11-09T00:17:00.807Z,137.50
2017-11-09T00:19:27.146Z,133.63
2017-11-09T00:21:53.521Z,122.63
2017-11-09T00:24:19.943Z,118.47
2017-11-09T00:26:46.303Z,118.33
2017-11-09T00:29:12.660Z,141.73
2017-11-09T00:31:39.009Z,126.00
2017-11-09T00:34:05.386Z,126.87
2017-11-09T00:36:32.454Z,136.73
2017-11-09T00:38:58.790Z,150.50
2017-11-09T00:41:25.158Z,144.57
2017-11-09T00:43:51.528Z,159.17
2017-11-09T00:46:18.694Z,147.57
2017-11-09T00:48:45.053Z,128.07
2017-11-09T00:51:11.401Z,139.13
2017-11-09T00:53:38.482Z,139.97
2017-11-09T00:56:05.039Z,133.70
2017-11-09T00:58:32.110Z,145.83
2017-11-09T01:00:58.514Z,137.50
2017-11-09T01:03:25.820Z,151.77
2017-11-09T01:05:52.161Z,117.50
2017-11-09T01:08:18.521Z,145.57
2017-11-09T01:10:44.870Z,136.77
2017-11-09T01:16:03.213Z,143.97
2017-11-09T01:18:30.373Z,130.27
2017-11-09T01:20:56.853Z,150.50
2017-11-09T01:23:23.298Z,126.07
2017-11-09T01:25:49.707Z,150.50
2017-11-09T01:28:16.161Z,141.93
2017-11-09T01:30:42.594Z,138.17
2017-11-09T01:33:09.788Z,145.07
2017-11-09T01:35:36.241Z,141.10
2017-11-09T01:38:02.761Z,119.47
2017-11-09T01:40:29.960Z,132.83
2017-11-09T01:42:56.384Z,138.70
2017-11-09T01:45:23.018Z,148.13
2017-11-09T01:47:49.441Z,155.47
2017-11-09T01:50:16.656Z,126.77
2017-11-09T01:52:43.064Z,132.47
2017-11-09T01:55:09.582Z,129.87
2017-11-09T01:57:36.764Z,138.77
2017-11-09T02:00:03.961Z,149.13
2017-11-09T02:02:30.397Z,127.17
2017-11-09T02:04:56.888Z,119.93
2017-11-09T02:07:23.447Z,100.63
2017-11-09T02:09:49.917Z,150.80
2017-11-09T02:12:16.381Z,110.53
2017-11-09T02:14:42.782Z,140.60
2017-11-09T02:17:09.347Z,165.27
2017-11-09T02:19:35.814Z,103.07
2017-11-09T02:22:02.336Z,144.83
2017-11-09T02:24:28.939Z,135.83
2017-11-09T02:26:55.566Z,146.03
2017-11-09T02:29:21.975Z,149.80
2017-11-09T02:31:49.254Z,145.93
2017-11-09T02:34:16.489Z,155.50
2017-11-09T02:36:42.973Z,140.33
2017-11-09T02:39:09.611Z,129.97
2017-11-09T02:41:36.088Z,132.47
2017-11-09T02:44:02.633Z,138.80
2017-11-09T02:46:29.089Z,157.03
2017-11-09T02:48:55.542Z,150.33
2017-11-09T02:51:21.979Z,146.33
2017-11-09T02:53:49.228Z,136.80
2017-11-09T02:56:16.482Z,176.47
2017-11-09T02:58:42.961Z,157.47
2017-11-09T03:01:09.447Z,154.77
2017-11-09T03:03:36.720Z,130.90
2017-11-09T03:06:03.188Z,144.33
2017-11-09T03:08:29.697Z,162.60
2017-11-09T03:10:56.149Z,188.70
2017-11-09T03:13:22.577Z,147.43
2017-11-09T03:15:49.798Z,167.33
2017-11-09T03:18:17.717Z,165.33
2017-11-09T03:20:44.190Z,149.17
2017-11-09T03:23:10.648Z,146.07
2017-11-09T03:25:37.876Z,152.13
2017-11-09T03:28:04.326Z,164.03
2017-11-09T03:30:30.770Z,115.93
2017-11-09T03:32:57.239Z,137.77
2017-11-09T03:35:23.681Z,140.20
2017-11-09T03:37:50.098Z,163.67
2017-11-09T03:40:16.574Z,161.30
2017-11-09T03:42:43.029Z,169.73
2017-11-09T03:45:09.500Z,128.93
2017-11-09T03:47:36.724Z,141.70
2017-11-09T03:50:03.170Z,154.17
2017-11-09T03:52:29.589Z,160.47
2017-11-09T03:54:56.025Z,139.63
2017-11-09T03:57:22.475Z,138.47
2017-11-09T03:59:49.770Z,142.27
2017-11-09T04:02:16.353Z,118.70
2017-11-09T04:04:42.852Z,131.00
2017-11-09T04:07:10.064Z,128.03
2017-11-09T04:09:36.527Z,132.50
2017-11-09T04:12:02.986Z,139.83
2017-11-09T04:14:29.428Z,112.90
2017-11-09T04:16:55.836Z,128.73
2017-11-09T04:19:22.984Z,121.40
2017-11-09T04:21:49.468Z,130.57
2017-11-09T04:24:15.934Z,142.23
2017-11-09T04:26:42.351Z,128.83
2017-11-09T04:29:08.760Z,136.13
2017-11-09T04:31:35.279Z,171.90
2017-11-09T04:34:03.161Z,139.03
2017-11-09T04:36:31.113Z,147.03
2017-11-09T04:38:57.548Z,154.33
2017-11-09T04:41:23.959Z,137.73
2017-11-09T04:43:51.117Z,133.00
2017-11-09T04:46:17.515Z,157.27
2017-11-09T04:48:44.806Z,141.57
2017-11-09T04:51:11.320Z,118.70
2017-11-09T04:53:37.789Z,134.40
2017-11-09T04:56:04.978Z,169.73
2017-11-09T04:58:32.163Z,147.73
2017-11-09T05:00:58.671Z,127.67
2017-11-09T05:03:25.246Z,132.37
2017-11-09T05:05:51.728Z,132.40
2017-11-09T05:08:18.993Z,148.47
2017-11-09T05:10:45.479Z,137.20
2017-11-09T05:13:11.985Z,152.73
2017-11-09T05:15:39.941Z,133.13
2017-11-09T05:18:06.403Z,142.07
2017-11-09T05:20:32.890Z,133.93
2017-11-09T05:22:59.402Z,142.50
2017-11-09T05:25:26.631Z,138.13
2017-11-09T05:27:53.091Z,138.97
2017-11-09T05:30:19.585Z,131.77
2017-11-09T05:32:46.846Z,127.80
2017-11-09T05:35:13.363Z,147.47
2017-11-09T05:37:39.816Z,140.43
2017-11-09T05:40:06.778Z,161.60
2017-11-09T05:42:33.371Z,138.73
2017-11-09T05:45:00.520Z,156.70
2017-11-09T05:47:27.726Z,146.80
2017-11-09T05:49:54.968Z,170.67
2017-11-09T05:52:21.406Z,159.90
2017-11-09T05:54:48.621Z,143.90
2017-11-09T05:57:15.096Z,122.70
2017-11-09T05:59:41.575Z,151.67
2017-11-09T06:02:08.065Z,151.93
2017-11-09T06:04:34.537Z,145.37
2017-11-09T06:07:01.867Z,130.67
2017-11-09T06:09:28.423Z,145.07
2017-11-09T06:11:56.349Z,127.40
2017-11-09T06:14:23.200Z,137.23
2017-11-09T06:16:50.894Z,135.20
2017-11-09T06:19:17.546Z,118.33
2017-11-09T06:21:44.934Z,118.87
2017-11-09T06:24:12.692Z,127.30
2017-11-09T06:26:41.333Z,133.70
2017-11-09T06:29:09.928Z,115.43
2017-11-09T06:31:40.985Z,135.60
2017-11-09T06:34:09.769Z,109.27
2017-11-09T06:36:37.706Z,113.77
2017-11-09T06:39:04.533Z,105.17
2017-11-09T06:41:31.141Z,112.70
2017-11-09T06:43:57.577Z,119.07
2017-11-09T06:46:24.841Z,120.20
2017-11-09T06:48:52.565Z,116.90
2017-11-09T06:51:19.848Z,105.40
2017-11-09T06:53:53.024Z,104.90
2017-11-09T06:56:20.554Z,103.40
2017-11-09T06:58:47.184Z,102.13
2017-11-09T07:01:13.770Z,106.77
2017-11-09T07:03:40.475Z,121.03
2017-11-09T07:06:07.365Z,84.00
2017-11-09T07:08:33.912Z,98.27
2017-11-09T07:11:00.402Z,93.07
2017-11-09T07:13:27.027Z,91.27
2017-11-09T07:15:54.326Z,84.63
2017-11-09T07:18:21.697Z,88.93
2017-11-09T07:20:50.199Z,90.00
2017-11-09T07:23:16.690Z,83.10
2017-11-09T07:25:43.362Z,81.07
2017-11-09T07:28:10.826Z,98.47
2017-11-09T07:30:37.684Z,71.00
2017-11-09T07:33:05.474Z,79.03
2017-11-09T07:35:32.099Z,78.63
2017-11-09T07:37:58.764Z,81.27
2017-11-09T07:40:26.038Z,83.90
2017-11-09T07:42:52.575Z,80.00
2017-11-09T07:45:19.868Z,68.50
2017-11-09T07:47:48.042Z,80.80
2017-11-09T07:50:15.414Z,84.97
2017-11-09T07:52:43.012Z,78.63
2017-11-09T07:55:09.608Z,70.93
2017-11-09T07:57:36.170Z,80.23
2017-11-09T08:00:04.804Z,75.10
2017-11-09T08:02:32.330Z,74.33
2017-11-09T08:04:58.860Z,72.17
2017-11-09T08:07:25.486Z,84.90
2017-11-09T08:09:52.042Z,72.50
2017-11-09T08:12:19.192Z,79.90
2017-11-09T08:14:47.376Z,68.27
2017-11-09T08:17:14.546Z,78.47
2017-11-09T08:19:41.062Z,77.33
2017-11-09T08:22:07.791Z,70.50
2017-11-09T08:24:37.164Z,72.37
2017-11-09T08:27:06.148Z,81.37
2017-11-09T08:29:35.797Z,71.27
2017-11-09T08:32:04.705Z,59.07
2017-11-09T08:34:35.585Z,70.47
2017-11-09T08:37:06.602Z,71.17
2017-11-09T08:39:36.093Z,62.57
2017-11-09T08:42:06.507Z,65.77
2017-11-09T08:44:34.475Z,68.73
2017-11-09T08:47:02.543Z,74.63
2017-11-09T08:49:29.177Z,59.63
2017-11-09T08:51:55.896Z,74.03
2017-11-09T08:54:23.110Z,66.10
2017-11-09T08:56:51.035Z,64.50
2017-11-09T08:59:17.705Z,71.00
2017-11-09T09:01:44.392Z,67.73
2017-11-09T09:04:10.888Z,71.33
2017-11-09T09:06:38.243Z,73.97
2017-11-09T09:09:07.441Z,71.37
2017-11-09T09:11:34.065Z,70.67
2017-11-09T09:14:00.569Z,73.70
2017-11-09T09:16:29.716Z,79.47
2017-11-09T09:18:56.211Z,79.47
2017-11-09T09:21:28.608Z,66.00
2017-11-09T09:24:01.261Z,69.83
2017-11-09T09:29:38.773Z,64.10
2017-11-09T09:32:06.070Z,69.40
2017-11-09T09:34:37.073Z,83.03
2017-11-09T09:37:06.744Z,75.90
2017-11-09T09:39:36.956Z,70.27
2017-11-09T09:42:03.551Z,71.63
2017-11-09T09:44:30.037Z,83.73
2017-11-09T09:46:56.721Z,87.03
2017-11-09T09:49:25.647Z,78.30
2017-11-09T09:51:53.550Z,73.90
2017-11-09T09:54:20.084Z,81.17
2017-11-09T09:56:47.422Z,81.20
2017-11-09T09:59:15.632Z,81.83
2017-11-09T10:01:42.249Z,85.30
2017-11-09T10:04:10.002Z,76.37
2017-11-09T10:06:36.547Z,84.30
2017-11-09T10:09:03.411Z,66.37
2017-11-09T10:11:30.028Z,79.10
2017-11-09T10:13:58.978Z,83.77
2017-11-09T10:16:26.555Z,70.37
2017-11-09T10:18:53.117Z,84.63
2017-11-09T10:21:19.684Z,67.13
2017-11-09T10:23:47.741Z,78.13
2017-11-09T10:26:15.259Z,69.43
2017-11-09T10:28:42.648Z,81.10
2017-11-09T10:31:11.157Z,62.80
2017-11-09T10:33:37.734Z,64.37
2017-11-09T10:36:06.806Z,65.20
2017-11-09T10:38:33.361Z,71.67
2017-11-09T10:41:00.737Z,75.60
2017-11-09T10:43:29.957Z,72.60
2017-11-09T10:45:58.225Z,63.83
2017-11-09T10:48:24.774Z,67.27
2017-11-09T10:50:51.980Z,68.77
2017-11-09T10:53:20.742Z,71.87
2017-11-09T10:55:49.453Z,63.10
2017-11-09T10:58:17.190Z,63.53
2017-11-09T11:00:48.129Z,66.40
2017-11-09T11:03:16.688Z,63.00
2017-11-09T11:05:44.428Z,62.13
2017-11-09T11:08:12.917Z,65.43
2017-11-09T11:10:47.658Z,66.87
2017-11-09T11:13:16.303Z,59.53
2017-11-09T11:15:44.620Z,66.23
2017-11-09T11:18:13.860Z,75.20
2017-11-09T11:20:43.001Z,74.60
2017-11-09T11:23:13.039Z,63.40
2017-11-09T11:25:40.344Z,60.03
2017-11-09T11:28:06.907Z,71.33
2017-11-09T11:30:33.527Z,58.83
2017-11-09T11:33:00.784Z,65.83
2017-11-09T11:35:30.192Z,56.23
2017-11-09T11:37:58.075Z,64.97
2017-11-09T11:40:24.635Z,69.97
2017-11-09T11:42:53.831Z,63.20
2017-11-09T11:45:21.992Z,57.87
2017-11-09T11:47:48.813Z,59.03
2017-11-09T11:50:17.365Z,50.50
2017-11-09T11:52:44.663Z,59.83
2017-11-09T11:55:11.321Z,72.57
2017-11-09T11:57:37.862Z,66.73
2017-11-09T12:00:04.588Z,58.90
2017-11-09T12:02:32.948Z,59.43
2017-11-09T12:05:00.432Z,58.23
2017-11-09T12:07:27.971Z,62.70
2017-11-09T12:09:55.344Z,55.13
2017-11-09T12:12:23.733Z,61.17
2017-11-09T12:14:54.277Z,55.37
2017-11-09T12:17:21.685Z,60.00
2017-11-09T12:19:48.940Z,64.50
2017-11-09T12:22:15.561Z,54.77
2017-11-09T12:24:43.476Z,58.40
2017-11-09T12:27:10.002Z,65.10
2017-11-09T12:29:38.409Z,52.47
2017-11-09T12:32:07.588Z,59.73
2017-11-09T12:34:35.081Z,60.47
2017-11-09T12:37:03.340Z,53.23
2017-11-09T12:39:32.950Z,61.77
2017-11-09T12:42:00.514Z,56.57
2017-11-09T12:44:27.057Z,64.93
2017-11-09T12:46:55.215Z,55.30
2017-11-09T12:49:21.908Z,59.93
2017-11-09T12:51:49.247Z,53.07
2017-11-09T12:54:16.851Z,55.30
2017-11-09T12:56:43.380Z,52.60
2017-11-09T12:59:09.947Z,55.43
2017-11-09T13:01:36.485Z,52.13
2017-11-09T13:04:03.882Z,57.87
2017-11-09T13:06:30.411Z,63.70
2017-11-09T13:08:58.116Z,62.97
2017-11-09T13:11:25.536Z,56.03
2017-11-09T13:13:52.600Z,56.93
2017-11-09T13:16:19.278Z,57.63
2017-11-09T13:18:46.807Z,53.80
2017-11-09T13:21:13.296Z,59.73
2017-11-09T13:23:40.711Z,55.87
2017-11-09T13:26:07.443Z,54.93
2017-11-09T13:28:34.480Z,56.53
2017-11-09T13:31:01.076Z,63.13
2017-11-09T13:33:28.899Z,60.90
2017-11-09T13:35:57.317Z,64.30
2017-11-09T13:38:25.308Z,69.57
2017-11-09T13:40:51.864Z,59.97
2017-11-09T13:43:21.216Z,61.00
2017-11-09T13:45:48.998Z,59.47
2017-11-09T13:48:15.516Z,57.73
2017-11-09T13:50:42.094Z,54.57
2017-11-09T13:53:08.786Z,66.60
2017-11-09T13:55:36.033Z,67.60
2017-11-09T13:58:02.614Z,64.13
2017-11-09T14:00:30.275Z,64.00
2017-11-09T14:03:01.837Z,63.50
2017-11-09T14:05:29.459Z,69.80
2017-11-09T14:07:59.417Z,60.00
2017-11-09T14:10:33.860Z,67.20
2017-11-09T14:13:05.011Z,74.43
2017-11-09T14:15:35.790Z,71.60
2017-11-09T14:18:03.102Z,68.60
2017-11-09T14:20:31.367Z,67.57
2017-11-09T14:22:58.675Z,64.47
2017-11-09T14:25:26.428Z,73.13
2017-11-09T14:27:53.057Z,69.00
2017-11-09T14:30:20.705Z,71.17
2017-11-09T14:32:47.884Z,62.07
2017-11-09T14:35:14.356Z,59.33
2017-11-09T14:37:43.751Z,65.20
2017-11-09T14:40:11.850Z,60.77
2017-11-09T14:42:39.074Z,71.37
2017-11-09T14:45:06.344Z,62.57
2017-11-09T14:47:33.088Z,61.80
2017-11-09T14:50:01.114Z,67.87
2017-11-09T14:52:27.703Z,65.73
2017-11-09T14:54:54.240Z,71.23
2017-11-09T14:57:20.777Z,66.50
2017-11-09T14:59:49.022Z,68.13
2017-11-09T15:02:15.493Z,67.43
2017-11-09T15:04:42.610Z,64.47
2017-11-09T15:07:09.230Z,64.83
2017-11-09T15:09:35.788Z,67.60
2017-11-09T15:12:03.563Z,75.97
2017-11-09T15:14:30.901Z,79.27
2017-11-09T15:16:57.465Z,69.10
2017-11-09T15:19:24.193Z,60.20
2017-11-09T15:21:51.004Z,64.67
2017-11-09T15:24:21.325Z,66.80
2017-11-09T15:26:50.268Z,75.17
2017-11-09T15:29:16.868Z,65.57
2017-11-09T15:31:47.058Z,70.97
2017-11-09T15:34:13.614Z,73.03
2017-11-09T15:36:41.197Z,83.27
2017-11-09T15:39:09.057Z,70.93
2017-11-09T15:41:38.141Z,71.33
2017-11-09T15:44:05.708Z,65.87
2017-11-09T15:46:32.946Z,85.90
2017-11-09T15:49:00.419Z,73.83
2017-11-09T15:51:27.018Z,72.80
2017-11-09T15:53:54.148Z,71.03
2017-11-09T15:56:22.077Z,81.67
2017-11-09T15:58:49.864Z,69.73
2017-11-09T16:01:17.265Z,85.00
2017-11-09T16:03:44.630Z,84.37
2017-11-09T16:06:16.477Z,78.37
2017-11-09T16:08:43.112Z,75.50
2017-11-09T16:11:09.846Z,74.47
2017-11-09T16:13:37.555Z,79.37
2017-11-09T16:16:04.147Z,72.93
2017-11-09T16:18:33.996Z,71.53
2017-11-09T16:21:01.720Z,78.50
2017-11-09T16:23:28.213Z,73.93
2017-11-09T16:25:55.443Z,67.70
2017-11-09T16:28:23.432Z,82.13
2017-11-09T16:30:49.942Z,75.27
2017-11-09T16:33:16.385Z,65.43
2017-11-09T16:35:42.827Z,77.57
2017-11-09T16:38:09.388Z,77.13
2017-11-09T16:40:35.850Z,62.93
2017-11-09T16:43:02.278Z,65.80
2017-11-09T16:45:28.724Z,82.70
2017-11-09T16:47:55.247Z,74.53
2017-11-09T16:50:22.430Z,62.70
2017-11-09T16:52:54.895Z,74.23
2017-11-09T16:55:21.414Z,70.47
2017-11-09T16:57:48.629Z,64.83
2017-11-09T17:00:15.069Z,68.77
2017-11-09T17:02:41.548Z,67.30
2017-11-09T17:05:07.976Z,72.57
2017-11-09T17:07:36.065Z,73.57
2017-11-09T17:10:02.547Z,64.27
2017-11-09T17:12:29.005Z,69.07
2017-11-09T17:15:00.535Z,66.23
2017-11-09T17:17:26.972Z,70.10
2017-11-09T17:19:54.224Z,63.80
2017-11-09T17:22:20.662Z,70.73
2017-11-09T17:24:47.117Z,71.87
2017-11-09T17:27:13.524Z,67.73
2017-11-09T17:29:40.033Z,57.90
2017-11-09T17:32:07.257Z,67.20
2017-11-09T17:34:33.691Z,72.10
2017-11-09T17:37:00.135Z,63.63
2017-11-09T17:39:26.598Z,60.33
2017-11-09T17:41:56.880Z,62.93
2017-11-09T17:44:24.411Z,61.63
2017-11-09T17:46:50.957Z,52.37
2017-11-09T17:49:17.385Z,60.80
2017-11-09T17:51:43.989Z,67.43
2017-11-09T17:54:10.445Z,67.93
2017-11-09T17:56:36.986Z,56.83
2017-11-09T17:59:08.072Z,61.80
2017-11-09T18:01:34.528Z,70.90
2017-11-09T18:04:00.980Z,67.73
2017-11-09T18:06:27.616Z,60.13
2017-11-09T18:08:54.144Z,58.63
2017-11-09T18:11:20.603Z,59.23
2017-11-09T18:13:47.107Z,56.13
2017-11-09T18:16:13.610Z,61.83
2017-11-09T18:18:40.182Z,77.13
2017-11-09T18:21:07.794Z,56.17
2017-11-09T18:23:34.272Z,54.23
2017-11-09T18:26:02.224Z,66.13
2017-11-09T18:28:28.718Z,68.03
2017-11-09T18:30:55.115Z,66.50
2017-11-09T18:33:21.549Z,63.77
2017-11-09T18:35:48.081Z,61.03
2017-11-09T18:38:15.238Z,63.23
2017-11-09T18:40:42.408Z,63.70
2017-11-09T18:43:09.628Z,55.50
2017-11-09T18:45:36.097Z,63.50
2017-11-09T18:48:02.532Z,64.07
2017-11-09T18:50:29.088Z,68.23
2017-11-09T18:52:55.662Z,65.40
2017-11-09T18:55:22.820Z,65.73
2017-11-09T18:57:50.064Z,62.17
2017-11-09T19:00:17.317Z,63.93
2017-11-09T19:02:43.870Z,58.47
2017-11-09T19:05:11.153Z,71.43
2017-11-09T19:07:38.349Z,50.50
2017-11-09T19:10:04.811Z,60.80
2017-11-09T19:12:31.493Z,67.93
2017-11-09T19:14:57.913Z,60.10
2017-11-09T19:17:24.375Z,65.27
2017-11-09T19:19:51.603Z,57.90
2017-11-09T19:22:18.063Z,69.87
2017-11-09T19:24:44.595Z,57.40
2017-11-09T19:27:11.067Z,66.57
2017-11-09T19:29:38.572Z,70.47
2017-11-09T19:32:05.105Z,62.30
2017-11-09T19:34:31.544Z,70.37
2017-11-09T19:36:57.996Z,77.50
2017-11-09T19:39:24.450Z,76.77
2017-11-09T19:41:51.615Z,74.30
2017-11-09T19:44:18.908Z,68.07
2017-11-09T19:46:45.353Z,80.13
2017-11-09T19:49:11.839Z,85.50
2017-11-09T19:51:38.324Z,83.33
2017-11-09T19:54:05.514Z,85.80
2017-11-09T19:56:32.030Z,81.83
2017-11-09T19:58:59.233Z,74.33
2017-11-09T20:01:25.686Z,81.30
2017-11-09T20:03:52.170Z,84.47
2017-11-09T20:06:19.436Z,78.43
2017-11-09T20:08:45.892Z,78.23
2017-11-09T20:11:12.436Z,78.03
2017-11-09T20:13:39.618Z,87.90
2017-11-09T20:16:06.117Z,82.33
2017-11-09T20:18:33.344Z,74.33
2017-11-09T20:20:59.772Z,81.43
2017-11-09T20:23:26.263Z,82.57
2017-11-09T20:25:52.716Z,68.23
2017-11-09T20:28:19.164Z,69.83
2017-11-09T20:30:45.633Z,86.97
2017-11-09T20:33:15.076Z,75.67
2017-11-09T20:35:41.561Z,88.03
2017-11-09T20:38:08.104Z,79.43
2017-11-09T20:40:34.586Z,76.30
2017-11-09T20:43:01.081Z,68.70
2017-11-09T20:45:27.633Z,64.50
2017-11-09T20:47:54.090Z,66.63
2017-11-09T20:50:21.399Z,64.23
2017-11-09T20:52:48.630Z,76.23
2017-11-09T20:55:15.152Z,55.80
2017-11-09T20:57:41.704Z,64.50
2017-11-09T21:00:08.216Z,60.80
2017-11-09T21:02:35.415Z,61.00
2017-11-09T21:05:02.002Z,75.73
2017-11-09T21:07:28.546Z,67.87
2017-11-09T21:09:55.028Z,70.53
2017-11-09T21:12:21.452Z,51.03
2017-11-09T21:14:47.967Z,63.60
2017-11-09T21:17:14.432Z,58.37
2017-11-09T21:19:40.955Z,50.63
2017-11-09T21:22:07.448Z,61.80
2017-11-09T21:24:33.947Z,56.70
2017-11-09T21:27:00.371Z,49.50
2017-11-09T21:29:27.198Z,37.93
2017-11-09T21:31:53.769Z,71.23
2017-11-09T21:34:20.228Z,49.93
2017-11-09T21:36:46.673Z,79.00
2017-11-09T21:39:13.095Z,57.40
2017-11-09T21:41:39.578Z,58.77
2017-11-09T21:44:06.080Z,54.23
2017-11-09T21:46:32.498Z,52.33
2017-11-09T21:48:59.050Z,58.30
2017-11-09T21:51:25.512Z,61.33
2017-11-09T21:53:52.020Z,45.47
2017-11-09T21:56:18.473Z,65.47
2017-11-09T21:58:44.962Z,57.87
2017-11-09T22:01:11.417Z,62.10
2017-11-09T22:03:37.914Z,57.50
2017-11-09T22:06:04.383Z,60.20
2017-11-09T22:08:30.811Z,49.40
2017-11-09T22:10:57.305Z,57.30
2017-11-09T22:13:23.758Z,66.17
2017-11-09T22:15:50.204Z,63.53
2017-11-09T22:18:17.487Z,45.57
2017-11-09T22:20:44.006Z,45.33
2017-11-09T22:23:10.484Z,60.00
2017-11-09T22:25:36.961Z,63.80
2017-11-09T22:28:04.143Z,48.23
2017-11-09T22:30:30.567Z,51.40
2017-11-09T22:32:57.838Z,51.27
2017-11-09T22:35:24.329Z,50.60
2017-11-09T22:37:50.765Z,49.20
2017-11-09T22:40:17.212Z,57.83
2017-11-09T22:42:43.642Z,45.90
2017-11-09T22:45:10.175Z,50.20
2017-11-09T22:47:36.925Z,57.93
2017-11-09T22:50:03.409Z,44.30
2017-11-09T22:52:29.893Z,57.53
2017-11-09T22:54:56.369Z,46.60
2017-11-09T22:57:22.812Z,58.13
2017-11-09T22:59:49.272Z,57.07
2017-11-09T23:02:15.720Z,55.70
2017-11-09T23:04:42.308Z,63.33
2017-11-09T23:07:08.696Z,69.03
2017-11-09T23:09:35.854Z,62.20
2017-11-09T23:12:02.328Z,68.60
2017-11-09T23:14:28.849Z,64.10
2017-11-09T23:16:55.981Z,64.53
2017-11-09T23:19:22.368Z,63.10
2017-11-09T23:21:48.842Z,61.87
2017-11-09T23:24:15.256Z,64.30
2017-11-09T23:26:41.660Z,61.57
2017-11-09T23:29:08.040Z,59.87
2017-11-09T23:31:34.491Z,62.30
2017-11-09T23:34:00.897Z,62.90
2017-11-09T23:36:27.342Z,72.47
2017-11-09T23:38:54.484Z,67.03
2017-11-09T23:41:21.656Z,56.03
2017-11-09T23:43:48.074Z,68.23
2017-11-09T23:46:15.386Z,65.90
2017-11-09T23:48:42.558Z,58.67
2017-11-09T23:51:09.686Z,68.37
2017-11-09T23:53:36.869Z,49.77
2017-11-09T23:56:03.305Z,70.47
2017-11-09T23:58:29.757Z,73.30
